Time;durP1;ratioP1;P1;durP2;ratioP2;P2;SDS_P1;SDS_P2;PMS_P1;PMS_P2;Temp;Humidity;BMP_temperature;BMP_pressure;BME280_temperature;BME280_humidity;BME280_pressure;Samples;Min_cycle;Max_cycle;Signal;HPM_P1;HPM_P2
2022/10/21 00:00:03;;;;;;;6.38;3.80;;;;;;;12.49;89.88;99081.66;5002651;28;20030;-72
2022/10/21 00:02:37;;;;;;;5.45;3.70;;;;;;;12.55;90.42;99067.50;5002083;28;20037;-72
2022/10/21 00:05:03;;;;;;;7.93;4.20;;;;;;;12.61;90.28;99059.94;5023798;28;20165;-72
2022/10/21 00:07:29;;;;;;;5.50;3.72;;;;;;;12.83;90.20;99080.25;5012819;28;20171;-71
2022/10/21 00:10:04;;;;;;;5.88;3.88;;;;;;;12.84;90.12;99076.41;5012936;28;20069;-72
2022/10/21 00:12:30;;;;;;;5.95;3.95;;;;;;;12.87;89.91;99064.78;5020255;28;20038;-73
2022/10/21 00:14:56;;;;;;;9.38;4.53;;;;;;;13.10;90.83;99080.09;5012105;28;20022;-72
2022/10/21 00:17:24;;;;;;;10.98;4.63;;;;;;;13.18;90.61;99039.28;5007808;28;20109;-73
2022/10/21 00:19:59;;;;;;;6.63;3.83;;;;;;;13.32;90.90;99031.72;5019319;28;20031;-73
2022/10/21 00:22:27;;;;;;;5.00;3.65;;;;;;;13.21;90.24;99002.94;5038951;28;20658;-73
2022/10/21 00:24:52;;;;;;;5.35;4.07;;;;;;;13.24;90.49;99018.78;5016673;28;20041;-71
2022/10/21 00:27:18;;;;;;;7.13;3.92;;;;;;;13.23;91.02;99017.19;5001321;28;20029;-72
2022/10/21 00:29:43;;;;;;;4.63;3.58;;;;;;;13.19;90.76;98999.72;5043243;28;20136;-71
2022/10/21 00:32:08;;;;;;;4.55;3.47;;;;;;;13.17;91.03;98980.84;5062515;28;20028;-72
2022/10/21 00:34:34;;;;;;;5.65;3.17;;;;;;;13.23;91.04;98978.75;5040846;28;20475;-72
2022/10/21 00:36:59;;;;;;;5.15;3.63;;;;;;;13.18;90.62;98996.16;5052733;28;20017;-73
2022/10/21 00:39:25;;;;;;;4.53;3.08;;;;;;;13.15;90.90;98988.56;5031625;28;20044;-72
2022/10/21 00:41:50;;;;;;;5.95;3.53;;;;;;;13.08;90.83;98994.53;5058169;28;20021;-71
2022/10/21 00:44:15;;;;;;;5.72;3.13;;;;;;;13.04;91.50;99022.88;5026295;28;20025;-71
2022/10/21 00:47:09;;;;;;;10.85;4.38;;;;;;;13.11;91.48;99036.97;5064582;28;20067;-72
2022/10/21 00:49:53;;;;;;;6.38;3.63;;;;;;;13.19;91.45;99021.69;5042739;28;20025;-71
2022/10/21 00:52:21;;;;;;;5.82;3.75;;;;;;;13.29;91.41;99010.41;5045415;28;20145;-72
2022/10/21 00:54:51;;;;;;;6.82;3.83;;;;;;;13.34;91.46;99018.50;5037655;28;20048;-73
2022/10/21 00:57:19;;;;;;;8.85;4.95;;;;;;;13.46;91.46;99022.59;5046908;28;20066;-71
2022/10/21 00:59:50;;;;;;;10.75;5.90;;;;;;;13.50;91.34;99020.81;5035222;28;20796;-72
2022/10/21 01:02:16;;;;;;;8.45;6.22;;;;;;;13.51;91.78;99025.19;5030396;28;20037;-71
2022/10/21 01:04:43;;;;;;;9.20;6.47;;;;;;;13.50;92.08;99018.88;5060727;28;20032;-72
2022/10/21 01:07:08;;;;;;;10.20;6.38;;;;;;;13.51;92.01;99016.97;5057001;28;20386;-72
2022/10/21 01:09:34;;;;;;;7.13;5.63;;;;;;;13.50;93.16;99004.34;5045834;28;20033;-72
2022/10/21 01:12:01;;;;;;;9.25;6.65;;;;;;;13.55;93.13;98993.19;5038934;28;20092;-72
2022/10/21 01:14:27;;;;;;;9.70;5.55;;;;;;;13.67;93.10;98985.16;5048439;28;20044;-72
2022/10/21 01:17:30;;;;;;;10.52;5.55;;;;;;;13.82;92.80;98985.81;5037740;28;20447;-72
2022/10/21 01:20:04;;;;;;;7.68;4.82;;;;;;;13.87;92.60;98974.63;5057233;28;20017;-73
2022/10/21 01:22:59;;;;;;;6.63;4.95;;;;;;;13.97;92.64;98979.81;5041868;28;20028;-72
2022/10/21 01:25:34;;;;;;;10.05;5.93;;;;;;;14.01;92.35;98986.28;5026644;28;20309;-72
2022/10/21 01:28:54;;;;;;;6.95;5.10;;;;;;;14.05;92.11;98992.75;5029035;28;20036;-75
2022/10/21 01:31:38;;;;;;;7.85;5.28;;;;;;;14.05;92.43;98981.75;4956195;28;20136;-72
2022/10/21 01:34:15;;;;;;;13.80;5.90;;;;;;;14.10;92.72;98972.53;5013078;28;20060;-72
2022/10/21 01:36:46;;;;;;;13.52;7.30;;;;;;;14.12;92.66;98976.59;5010529;28;20038;-71
2022/10/21 01:39:45;;;;;;;12.50;7.00;;;;;;;14.12;93.00;98982.06;5014285;28;20048;-72
2022/10/21 01:42:22;;;;;;;9.95;6.90;;;;;;;14.00;93.54;98979.16;5011960;28;20064;-73
2022/10/21 01:45:04;;;;;;;13.77;6.72;;;;;;;13.95;94.54;98982.09;5026824;28;20030;-72
2022/10/21 01:47:55;;;;;;;10.15;6.10;;;;;;;13.94;95.12;98964.81;5035857;28;20044;-73
2022/10/21 01:50:33;;;;;;;7.75;5.72;;;;;;;13.93;94.97;98935.69;5005225;28;20038;-72
2022/10/21 01:53:03;;;;;;;6.97;5.47;;;;;;;14.02;95.45;98926.63;5033443;28;20045;-70
2022/10/21 01:55:31;;;;;;;6.30;5.45;;;;;;;14.08;94.79;98919.84;5017092;28;20041;-70
2022/10/21 01:58:07;;;;;;;7.07;5.30;;;;;;;14.13;94.52;98928.72;5016149;28;20033;-71
2022/10/21 02:00:35;;;;;;;5.88;4.93;;;;;;;14.15;94.65;98917.41;5011483;28;20030;-72
2022/10/21 02:03:06;;;;;;;8.55;4.65;;;;;;;14.18;94.39;98918.66;5015292;28;20021;-71
2022/10/21 02:05:34;;;;;;;7.05;4.65;;;;;;;14.21;94.13;98907.84;5029756;28;20049;-72
2022/10/21 02:08:00;;;;;;;4.90;3.97;;;;;;;14.28;94.08;98921.06;5014791;28;20065;-73
2022/10/21 02:10:31;;;;;;;7.82;4.00;;;;;;;14.29;93.50;98936.44;5027765;28;20033;-75
2022/10/21 02:12:59;;;;;;;7.55;4.82;;;;;;;14.26;93.91;98957.13;5018399;28;20045;-73
2022/10/21 02:15:28;;;;;;;7.07;4.22;;;;;;;14.21;94.74;98940.81;5017424;28;20049;-72
2022/10/21 02:18:08;;;;;;;7.30;4.10;;;;;;;14.25;95.09;98908.81;5012218;28;20095;-72
2022/10/21 02:20:41;;;;;;;9.43;4.35;;;;;;;14.25;94.98;98928.06;5010367;28;20049;-72
2022/10/21 02:23:12;;;;;;;4.65;3.38;;;;;;;14.28;95.12;98921.06;5020292;28;20148;-72
2022/10/21 02:25:43;;;;;;;4.70;3.25;;;;;;;14.37;95.04;98902.63;5017888;28;20048;-71
2022/10/21 02:28:11;;;;;;;4.38;3.13;;;;;;;14.54;94.73;98903.69;5010269;28;20068;-73
2022/10/21 02:31:06;;;;;;;6.82;3.58;;;;;;;14.60;94.04;98894.94;5046931;28;20501;-73
2022/10/21 02:33:47;;;;;;;6.20;3.50;;;;;;;14.60;93.73;98888.59;5037656;28;20061;-72
2022/10/21 02:36:26;;;;;;;4.50;3.10;;;;;;;14.64;93.66;98873.09;5038364;28;20082;-71
2022/10/21 02:39:01;;;;;;;8.35;3.85;;;;;;;14.74;93.55;98878.22;5045456;28;20033;-71
2022/10/21 02:41:29;;;;;;;7.50;4.90;;;;;;;14.71;93.09;98876.13;5036102;28;20017;-72
2022/10/21 02:43:59;;;;;;;7.85;4.43;;;;;;;14.75;92.87;98860.59;5030550;28;20037;-71
2022/10/21 02:46:30;;;;;;;4.45;3.50;;;;;;;14.76;92.83;98855.88;5053670;28;20166;-71
2022/10/21 02:48:55;;;;;;;5.30;3.90;;;;;;;14.77;92.78;98847.28;5023972;28;20040;-72
2022/10/21 02:51:20;;;;;;;5.50;4.05;;;;;;;14.78;92.64;98846.16;5017088;28;20040;-71
2022/10/21 02:53:46;;;;;;;6.13;4.07;;;;;;;14.82;92.62;98855.38;5044575;28;20044;-74
2022/10/21 02:56:11;;;;;;;6.47;4.15;;;;;;;14.81;92.58;98842.72;5018931;28;20059;-72
2022/10/21 02:58:37;;;;;;;4.65;3.70;;;;;;;14.86;92.63;98847.22;5049746;28;20036;-71
2022/10/21 03:01:02;;;;;;;3.88;3.33;;;;;;;14.89;92.36;98854.03;5032593;28;20429;-72
2022/10/21 03:03:31;;;;;;;8.82;4.72;;;;;;;14.79;92.59;98839.53;5049776;28;20037;-72
2022/10/21 03:05:56;;;;;;;6.80;4.35;;;;;;;14.81;92.79;98839.97;5054976;28;20060;-73
2022/10/21 03:08:22;;;;;;;7.53;3.92;;;;;;;14.81;92.80;98831.72;5055173;28;20076;-72
2022/10/21 03:10:49;;;;;;;7.35;3.60;;;;;;;14.77;93.20;98836.28;5040568;28;20032;-72
2022/10/21 03:13:14;;;;;;;8.63;3.15;;;;;;;14.77;93.25;98833.53;5057636;28;20033;-74
2022/10/21 03:15:40;;;;;;;6.10;3.38;;;;;;;14.72;93.21;98828.22;5043107;28;20100;-72
2022/10/21 03:18:05;;;;;;;8.60;3.60;;;;;;;14.70;93.40;98836.00;5023721;28;20039;-72
2022/10/21 03:20:30;;;;;;;5.50;3.08;;;;;;;14.63;93.90;98831.03;5055607;28;20445;-72
2022/10/21 03:22:56;;;;;;;5.45;3.30;;;;;;;14.56;94.02;98822.47;5055932;28;20021;-72
2022/10/21 03:25:21;;;;;;;6.55;3.25;;;;;;;14.61;94.20;98833.28;5033263;28;20479;-73
2022/10/21 03:27:49;;;;;;;6.80;4.07;;;;;;;14.61;94.18;98824.22;5055155;28;20030;-73
2022/10/21 03:30:15;;;;;;;7.78;4.65;;;;;;;14.65;94.10;98831.50;5055413;28;20053;-73
2022/10/21 03:32:40;;;;;;;9.13;4.70;;;;;;;14.68;94.44;98824.53;5033168;28;20051;-73
2022/10/21 03:35:06;;;;;;;7.57;3.83;;;;;;;14.55;94.20;98820.03;5051801;28;20033;-73
2022/10/21 03:37:32;;;;;;;8.23;3.78;;;;;;;14.47;95.01;98822.50;5024357;28;20032;-73
2022/10/21 03:39:57;;;;;;;7.57;4.50;;;;;;;14.45;95.29;98819.25;5057132;28;20024;-71
2022/10/21 03:42:23;;;;;;;8.73;4.97;;;;;;;14.44;95.60;98812.16;5011894;28;20029;-73
2022/10/21 03:44:48;;;;;;;8.85;5.03;;;;;;;14.36;96.45;98799.25;5022537;28;20040;-73
2022/10/21 03:47:14;;;;;;;12.50;5.32;;;;;;;14.36;96.50;98804.75;5028199;28;20100;-73
2022/10/21 03:49:39;;;;;;;13.18;5.45;;;;;;;14.36;96.10;98807.50;5022827;28;20041;-73
2022/10/21 03:52:05;;;;;;;9.68;5.50;;;;;;;14.34;97.04;98803.47;5023794;28;20037;-73
2022/10/21 03:54:30;;;;;;;11.23;5.38;;;;;;;14.29;96.84;98793.47;5054183;28;20431;-74
2022/10/21 03:56:56;;;;;;;9.48;5.03;;;;;;;14.23;97.56;98789.28;5052285;28;20376;-74
2022/10/21 03:59:21;;;;;;;9.25;5.30;;;;;;;14.16;97.65;98789.00;5011087;28;20036;-73
2022/10/21 04:01:47;;;;;;;7.38;4.65;;;;;;;14.05;97.82;98786.63;5042424;28;20443;-72
2022/10/21 04:04:12;;;;;;;9.10;4.65;;;;;;;13.92;98.32;98769.19;5063010;28;20085;-73
2022/10/21 04:06:37;;;;;;;6.07;4.40;;;;;;;13.89;99.05;98771.81;5020298;28;20492;-73
2022/10/21 04:09:03;;;;;;;12.85;4.70;;;;;;;13.88;99.19;98767.44;5025899;28;20028;-72
2022/10/21 04:11:28;;;;;;;5.95;4.40;;;;;;;13.93;99.58;98768.06;5036659;28;20135;-74
2022/10/21 04:13:54;;;;;;;9.25;4.55;;;;;;;13.96;99.33;98763.88;5057265;28;20059;-73
2022/10/21 04:16:21;;;;;;;7.47;3.85;;;;;;;13.99;99.42;98757.72;5019751;28;20029;-73
2022/10/21 04:18:46;;;;;;;8.60;4.03;;;;;;;14.05;99.45;98761.88;5044262;28;20029;-74
2022/10/21 04:21:12;;;;;;;6.65;3.97;;;;;;;14.03;99.40;98758.66;5044590;28;20029;-72
2022/10/21 04:23:37;;;;;;;7.15;3.85;;;;;;;14.06;99.45;98757.19;5046830;28;20036;-72
2022/10/21 04:26:04;;;;;;;7.20;3.15;;;;;;;14.09;99.43;98762.84;5043677;28;20048;-73
2022/10/21 04:28:29;;;;;;;9.27;3.58;;;;;;;14.11;99.96;98755.06;5061211;28;20060;-72
2022/10/21 04:30:55;;;;;;;8.27;3.20;;;;;;;14.06;99.34;98736.03;5023289;28;20132;-74
2022/10/21 04:33:20;;;;;;;4.82;3.50;;;;;;;14.22;99.71;98760.19;5035963;28;20476;-73
2022/10/21 04:35:46;;;;;;;11.20;3.65;;;;;;;14.27;99.39;98768.25;5029959;28;20112;-74
2022/10/21 04:38:11;;;;;;;11.35;3.45;;;;;;;14.29;99.21;98749.47;5037416;28;20030;-73
2022/10/21 04:40:39;;;;;;;7.20;2.88;;;;;;;14.23;99.64;98753.56;5041224;28;20029;-74
2022/10/21 04:43:05;;;;;;;6.38;2.65;;;;;;;14.12;99.73;98751.19;5035355;28;20108;-73
2022/10/21 04:45:30;;;;;;;7.07;3.17;;;;;;;13.97;99.96;98748.97;5024614;28;20063;-73
2022/10/21 04:47:56;;;;;;;7.55;2.50;;;;;;;13.85;100.00;98740.63;5038367;28;20064;-72
2022/10/21 04:50:21;;;;;;;6.57;2.83;;;;;;;13.76;100.00;98737.91;5041037;28;20030;-73
2022/10/21 04:52:46;;;;;;;4.22;2.35;;;;;;;13.75;100.00;98748.06;5037239;28;20025;-74
2022/10/21 04:55:12;;;;;;;5.78;2.67;;;;;;;13.70;100.00;98739.22;5033144;28;20033;-73
2022/10/21 04:57:39;;;;;;;7.50;2.58;;;;;;;13.75;100.00;98745.31;5040604;28;20029;-72
2022/10/21 05:00:06;;;;;;;6.10;2.50;;;;;;;13.71;100.00;98747.16;5034112;28;20124;-72
2022/10/21 05:02:32;;;;;;;5.10;1.85;;;;;;;13.74;100.00;98745.66;5032454;28;20083;-73
2022/10/21 05:04:58;;;;;;;5.32;2.22;;;;;;;13.63;100.00;98728.75;5037035;28;20045;-73
2022/10/21 05:07:24;;;;;;;5.07;2.22;;;;;;;13.48;100.00;98726.50;5036617;28;20040;-72
2022/10/21 05:09:49;;;;;;;5.55;2.00;;;;;;;13.50;100.00;98740.72;5036968;28;20086;-72
2022/10/21 05:12:15;;;;;;;6.10;2.10;;;;;;;13.44;100.00;98731.84;5038660;28;20037;-74
2022/10/21 05:14:40;;;;;;;9.85;2.30;;;;;;;13.42;100.00;98740.41;5020925;28;20065;-71
2022/10/21 05:17:27;;;;;;;7.82;2.17;;;;;;;13.37;100.00;98726.84;5015816;28;20440;-72
2022/10/21 05:19:52;;;;;;;4.32;1.95;;;;;;;13.30;100.00;98726.50;5021796;28;20034;-74
2022/10/21 05:22:20;;;;;;;5.03;1.77;;;;;;;13.19;100.00;98708.78;5020045;28;20037;-74
2022/10/21 05:24:45;;;;;;;4.90;2.55;;;;;;;13.30;100.00;98737.50;5041451;28;20029;-73
2022/10/21 05:27:11;;;;;;;7.07;3.13;;;;;;;13.37;100.00;98740.59;5022102;28;20083;-74
2022/10/21 05:29:36;;;;;;;4.88;2.03;;;;;;;13.42;100.00;98742.38;5012906;28;20052;-71
2022/10/21 05:32:02;;;;;;;4.65;2.05;;;;;;;13.56;100.00;98742.97;5020404;28;20033;-73
2022/10/21 05:34:27;;;;;;;6.38;3.22;;;;;;;13.56;100.00;98736.66;5033915;28;20021;-74
2022/10/21 05:36:53;;;;;;;3.65;1.90;;;;;;;13.58;100.00;98731.66;5011422;28;20037;-74
2022/10/21 05:39:23;;;;;;;6.32;2.25;;;;;;;13.71;100.00;98747.16;5024406;28;20034;-73
2022/10/21 05:41:48;;;;;;;7.45;2.08;;;;;;;13.68;100.00;98747.81;5039484;28;20037;-74
2022/10/21 05:44:14;;;;;;;5.40;1.70;;;;;;;13.57;100.00;98739.09;5049440;28;20029;-75
2022/10/21 05:46:42;;;;;;;4.43;1.60;;;;;;;13.58;100.00;98746.19;4998981;28;20037;-73
2022/10/21 05:49:10;;;;;;;7.18;1.77;;;;;;;13.53;100.00;98742.81;5048123;28;20041;-72
2022/10/21 05:51:35;;;;;;;13.77;2.47;;;;;;;13.49;100.00;98750.09;5038784;28;20040;-75
2022/10/21 05:54:02;;;;;;;5.18;1.73;;;;;;;13.40;100.00;98737.22;5015573;28;20038;-75
2022/10/21 05:56:28;;;;;;;4.47;1.63;;;;;;;13.36;100.00;98740.91;5030820;28;20040;-74
2022/10/21 05:58:53;;;;;;;3.70;1.75;;;;;;;13.34;100.00;98730.25;5026999;28;20026;-73
2022/10/21 06:01:19;;;;;;;5.28;1.60;;;;;;;13.34;100.00;98735.75;5021063;28;20049;-73
2022/10/21 06:03:44;;;;;;;5.82;2.20;;;;;;;13.32;100.00;98728.97;5020424;28;20025;-74
2022/10/21 06:06:10;;;;;;;8.90;2.22;;;;;;;13.33;100.00;98731.38;4994775;28;20050;-72
2022/10/21 06:08:37;;;;;;;9.77;1.83;;;;;;;13.30;100.00;98726.50;5031065;28;20052;-74
2022/10/21 06:11:06;;;;;;;8.13;2.08;;;;;;;13.33;100.00;98720.41;5031217;28;20022;-73
2022/10/21 06:13:32;;;;;;;5.70;1.52;;;;;;;13.37;100.00;98724.09;5035157;28;20049;-74
2022/10/21 06:15:58;;;;;;;8.75;1.73;;;;;;;13.48;100.00;98738.31;5025426;28;20026;-74
2022/10/21 06:18:25;;;;;;;8.50;2.38;;;;;;;13.61;100.00;98725.53;5027480;28;20057;-73
2022/10/21 06:20:50;;;;;;;11.73;2.42;;;;;;;13.70;100.00;98729.03;5027352;28;20065;-72
2022/10/21 06:23:16;;;;;;;6.20;2.72;;;;;;;13.74;100.00;98724.50;5028714;28;20053;-72
2022/10/21 06:25:43;;;;;;;12.13;2.30;;;;;;;13.88;100.00;98739.97;5037353;28;20025;-74
2022/10/21 06:28:12;;;;;;;8.35;2.40;;;;;;;13.83;100.00;98715.41;5031219;28;20021;-75
2022/10/21 06:30:47;;;;;;;10.20;1.88;;;;;;;13.88;100.00;98728.97;5022831;28;20062;-75
2022/10/21 06:33:16;;;;;;;13.63;2.03;;;;;;;13.82;100.00;98724.81;5008721;28;20102;-76
2022/10/21 06:35:50;;;;;;;12.98;2.40;;;;;;;13.92;100.00;98732.69;5016599;28;20030;-74
2022/10/21 06:38:19;;;;;;;7.55;1.70;;;;;;;13.98;100.00;98731.34;5004409;28;20049;-72
2022/10/21 06:41:00;;;;;;;14.55;2.10;;;;;;;14.06;100.00;98738.78;5005650;28;20034;-73
2022/10/21 06:43:56;;;;;;;;;;;;;;;;;;;;;
2022/10/21 06:47:16;;;;;;;;;;;;;;;;;;;;;
2022/10/21 06:50:01;;;;;;;12.35;2.08;;;;;;;14.14;100.00;98734.34;5018979;28;20038;-74
2022/10/21 06:52:51;;;;;;;;;;;;;;;;;;;;;
2022/10/21 06:55:28;;;;;;;;;;;;;;;;;;;;;
2022/10/21 07:01:47;;;;;;;11.25;2.20;;;;;;;14.53;97.84;98739.78;5012036;28;20041;-74
2022/10/21 07:04:21;;;;;;;18.35;2.17;;;;;;;14.51;97.47;98722.81;5030287;28;20045;-72
2022/10/21 07:06:48;;;;;;;8.70;1.80;;;;;;;14.61;96.25;98738.94;5017642;28;20029;-72
2022/10/21 07:09:14;;;;;;;17.77;2.13;;;;;;;14.62;96.41;98724.09;5010810;28;20029;-72
2022/10/21 07:11:41;;;;;;;11.02;1.67;;;;;;;14.60;96.14;98724.38;4997528;28;20053;-71
2022/10/21 07:14:09;;;;;;;14.80;2.30;;;;;;;14.68;95.69;98733.75;5003366;28;20026;-72
2022/10/21 07:16:36;;;;;;;11.57;1.98;;;;;;;14.57;95.73;98729.72;5023311;28;20038;-71
2022/10/21 07:19:03;;;;;;;13.75;1.73;;;;;;;14.59;95.55;98725.53;5023300;28;20046;-73
2022/10/21 07:21:30;;;;;;;14.10;2.13;;;;;;;14.58;95.66;98737.66;5009837;28;20025;-71
2022/10/21 07:24:36;;;;;;;;;;;;;;;;;;;;;
2022/10/21 07:26:59;;;;;;;19.40;2.30;;;;;;;14.68;95.32;98725.50;5016001;28;20061;-73
2022/10/21 07:29:41;;;;;;;11.48;2.30;;;;;;;14.87;94.65;98737.97;5015899;28;20025;-73
2022/10/21 07:32:07;;;;;;;10.73;2.10;;;;;;;14.97;93.57;98729.31;5055576;28;20053;-73
2022/10/21 07:34:32;;;;;;;18.83;2.58;;;;;;;15.13;93.13;98746.81;5028185;28;20036;-71
2022/10/21 07:36:58;;;;;;;9.32;2.10;;;;;;;15.24;91.92;98749.16;5029201;28;20068;-73
2022/10/21 07:39:33;;;;;;;11.90;1.80;;;;;;;15.30;91.59;98742.28;5036803;28;20036;-71
2022/10/21 07:41:58;;;;;;;10.38;2.10;;;;;;;15.45;90.74;98755.44;5038853;28;20037;-72
2022/10/21 07:44:34;;;;;;;16.80;2.97;;;;;;;15.47;89.58;98742.13;5047437;28;20025;-72
2022/10/21 07:47:02;;;;;;;10.00;2.22;;;;;;;15.68;89.36;98755.03;5055459;28;20025;-73
2022/10/21 07:49:28;;;;;;;13.20;1.98;;;;;;;15.67;89.25;98739.66;5062391;28;20115;-73
2022/10/21 07:51:56;;;;;;;15.07;2.05;;;;;;;15.62;88.65;98737.09;5044149;28;20101;-73
2022/10/21 07:54:24;;;;;;;17.98;2.85;;;;;;;15.50;89.92;98741.44;5045056;28;20037;-73
2022/10/21 07:56:51;;;;;;;8.55;1.60;;;;;;;15.25;90.88;98731.50;5027365;28;20314;-74
2022/10/21 07:59:19;;;;;;;20.08;2.63;;;;;;;15.11;92.43;98743.63;5052182;28;20014;-72
2022/10/21 08:01:46;;;;;;;19.98;3.00;;;;;;;14.83;97.37;98751.59;5052005;28;20032;-72
2022/10/21 08:04:18;;;;;;;13.57;2.72;;;;;;;14.58;100.00;98734.09;5027382;28;20056;-73
2022/10/21 08:06:45;;;;;;;13.57;2.30;;;;;;;14.43;100.00;98736.31;5045785;28;20035;-74
2022/10/21 08:09:10;;;;;;;15.85;2.10;;;;;;;14.37;100.00;98745.88;5041723;28;20025;-73
2022/10/21 08:11:37;;;;;;;13.23;2.63;;;;;;;14.39;100.00;98762.84;5049269;28;20029;-73
2022/10/21 08:14:08;;;;;;;12.18;2.15;;;;;;;14.40;100.00;98739.72;5041384;28;20013;-75
2022/10/21 08:16:36;;;;;;;10.10;2.13;;;;;;;14.41;100.00;98735.84;5052750;28;20025;-76
2022/10/21 08:19:15;;;;;;;16.88;2.80;;;;;;;14.52;100.00;98718.94;5030058;28;20021;-76
2022/10/21 08:21:44;;;;;;;10.85;2.13;;;;;;;14.68;100.00;98735.69;5026572;28;20164;-75
2022/10/21 08:24:09;;;;;;;10.65;2.15;;;;;;;14.86;100.00;98744.63;5033732;28;20092;-73
2022/10/21 08:26:47;;;;;;;10.80;1.90;;;;;;;14.98;100.00;98740.00;5050650;28;20147;-74
2022/10/21 08:29:12;;;;;;;8.50;2.05;;;;;;;15.00;100.00;98745.16;5060588;28;20033;-73
2022/10/21 08:31:40;;;;;;;12.38;1.75;;;;;;;14.91;100.00;98736.16;5057768;28;20040;-73
2022/10/21 08:34:06;;;;;;;9.43;2.03;;;;;;;14.91;100.00;98747.97;5018396;28;20401;-74
2022/10/21 08:36:31;;;;;;;10.32;2.53;;;;;;;14.86;100.00;98741.88;5047469;28;20044;-72
2022/10/21 08:38:57;;;;;;;9.23;1.63;;;;;;;14.81;100.00;98732.66;5033756;28;20468;-73
2022/10/21 08:41:28;;;;;;;12.73;2.67;;;;;;;14.83;100.00;98738.66;5058154;28;20020;-72
2022/10/21 08:44:23;;;;;;;16.30;2.10;;;;;;;14.82;100.00;98741.72;5053259;28;20443;-73
2022/10/21 08:47:11;;;;;;;17.55;2.35;;;;;;;14.71;100.00;98726.78;5017282;28;20040;-71
2022/10/21 08:49:43;;;;;;;16.02;2.25;;;;;;;14.71;100.00;98741.31;5026380;28;20029;-72
2022/10/21 08:52:20;;;;;;;15.48;2.45;;;;;;;14.65;100.00;98748.97;5029305;28;20025;-74
2022/10/21 08:54:59;;;;;;;7.00;1.55;;;;;;;14.71;100.00;98749.56;5029808;28;20803;-73
2022/10/21 08:57:25;;;;;;;9.15;1.55;;;;;;;14.72;100.00;98753.94;5054235;28;20240;-73
2022/10/21 08:59:51;;;;;;;7.75;1.83;;;;;;;14.67;100.00;98759.63;5041818;28;20017;-75
2022/10/21 09:02:52;;;;;;;10.95;2.00;;;;;;;14.61;100.00;98766.44;5026387;28;20024;-79
2022/10/21 09:05:36;;;;;;;14.30;2.30;;;;;;;14.62;100.00;98770.84;5034514;28;20056;-79
2022/10/21 09:08:47;;;;;;;10.80;2.08;;;;;;;14.61;100.00;98734.25;5043589;28;20049;-77
2022/10/21 09:11:49;;;;;;;10.40;2.58;;;;;;;15.03;100.00;98777.50;5062755;28;20021;-79
2022/10/21 09:15:03;;;;;;;;;;;;;;;;;;;;;
2022/10/21 09:17:34;;;;;;;14.00;1.85;;;;;;;15.56;100.00;98760.50;5064435;28;20064;-73
2022/10/21 09:20:32;;;;;;;13.82;2.92;;;;;;;15.98;100.00;98779.72;5053853;28;20052;-76
2022/10/21 09:23:47;;;;;;;12.13;2.05;;;;;;;16.37;100.00;98744.34;5024686;28;20525;-75
2022/10/21 09:26:43;;;;;;;22.27;2.30;;;;;;;16.09;100.00;98750.56;5039499;28;20529;-73
2022/10/21 09:29:42;;;;;;;11.85;1.90;;;;;;;15.90;100.00;98736.50;5055438;28;20033;-73
2022/10/21 09:32:17;;;;;;;12.60;2.63;;;;;;;15.99;100.00;98724.22;5059730;28;20268;-76
2022/10/21 09:35:27;;;;;;;8.45;1.85;;;;;;;16.06;100.00;98753.97;5075541;28;20020;-76
2022/10/21 09:38:36;;;;;;;14.98;2.25;;;;;;;15.75;100.00;98724.97;5046275;28;20021;-76
2022/10/21 09:41:17;;;;;;;11.68;2.13;;;;;;;15.53;100.00;98738.00;5066360;28;20040;-79
2022/10/21 09:43:44;;;;;;;13.27;2.00;;;;;;;15.38;100.00;98743.38;5039932;28;20115;-72
2022/10/21 09:46:13;;;;;;;9.88;2.00;;;;;;;15.09;100.00;98776.16;5043977;28;20041;-74
2022/10/21 09:48:46;;;;;;;20.05;2.83;;;;;;;14.93;100.00;98747.63;5044570;28;20099;-75
2022/10/21 09:51:16;;;;;;;15.80;2.58;;;;;;;14.89;100.00;98746.69;5065367;28;20061;-73
2022/10/21 09:54:03;;;;;;;9.82;2.17;;;;;;;14.87;100.00;98758.03;5031844;28;20039;-74
2022/10/21 09:56:42;;;;;;;6.90;1.77;;;;;;;15.11;100.00;98735.34;5039941;28;20017;-72
2022/10/21 09:59:17;;;;;;;17.48;2.33;;;;;;;15.19;100.00;98748.22;5059312;28;20159;-74
2022/10/21 10:01:44;;;;;;;17.00;2.38;;;;;;;15.19;100.00;98734.44;5023010;28;20031;-73
2022/10/21 10:04:16;;;;;;;13.73;2.47;;;;;;;15.94;100.00;98731.91;5049648;28;20025;-72
2022/10/21 10:06:44;;;;;;;17.25;2.88;;;;;;;16.71;100.00;98739.47;5043226;28;20055;-72
2022/10/21 10:09:16;;;;;;;17.58;3.33;;;;;;;16.98;100.00;98737.13;5057613;28;20035;-73
2022/10/21 10:12:14;;;;;;;26.35;3.72;;;;;;;17.62;100.00;98740.84;5059634;28;20136;-74
2022/10/21 10:14:42;;;;;;;21.60;3.03;;;;;;;18.64;98.20;98750.47;5042588;28;20033;-74
2022/10/21 10:17:22;;;;;;;21.85;3.42;;;;;;;18.25;92.45;98744.81;5060830;28;20040;-73
2022/10/21 10:20:03;;;;;;;18.92;3.40;;;;;;;17.64;94.21;98746.84;5052364;28;20029;-73
2022/10/21 10:22:36;;;;;;;17.88;3.33;;;;;;;17.20;95.67;98733.81;5057425;28;20028;-73
2022/10/21 10:25:10;;;;;;;16.60;3.72;;;;;;;16.79;97.91;98744.03;5027900;28;20052;-73
2022/10/21 10:27:58;;;;;;;21.42;4.18;;;;;;;16.60;99.25;98735.56;5034537;28;20021;-74
2022/10/21 10:30:26;;;;;;;17.08;3.42;;;;;;;16.42;99.84;98735.81;5046395;28;20044;-74
2022/10/21 10:32:54;;;;;;;21.08;3.38;;;;;;;16.25;100.00;98736.06;5051829;28;20035;-72
2022/10/21 10:35:35;;;;;;;20.17;2.88;;;;;;;16.04;100.00;98736.97;5035231;28;20017;-73
2022/10/21 10:38:01;;;;;;;14.70;2.70;;;;;;;15.96;100.00;98746.97;5025849;28;20084;-74
2022/10/21 10:40:38;;;;;;;17.40;2.90;;;;;;;16.12;100.00;98727.81;5038482;28;20056;-74
2022/10/21 10:43:42;;;;;;;24.77;4.55;;;;;;;16.45;100.00;98748.91;5053455;28;20021;-74
2022/10/21 10:46:14;;;;;;;26.42;4.00;;;;;;;16.64;99.37;98740.03;5027720;28;20040;-74
2022/10/21 10:48:43;;;;;;;28.95;5.22;;;;;;;16.95;96.00;98743.34;5049226;28;20009;-74
2022/10/21 10:51:21;;;;;;;21.98;3.75;;;;;;;17.16;92.59;98743.97;5044935;28;20036;-75
2022/10/21 10:54:05;;;;;;;19.30;4.72;;;;;;;17.15;90.46;98782.97;5046016;28;20024;-73
2022/10/21 10:56:42;;;;;;;;;;;;;;;16.86;90.00;98760.81;5045184;28;20463;-74
2022/10/21 10:59:19;;;;;;;29.67;4.75;;;;;;;16.62;90.32;98750.63;5044606;28;19959;-74
2022/10/21 11:02:01;;;;;;;23.20;3.40;;;;;;;16.12;93.41;98749.84;5054650;28;20040;-73
2022/10/21 11:04:34;;;;;;;22.85;3.70;;;;;;;15.83;96.56;98762.69;5053438;28;20116;-73
2022/10/21 11:07:44;;;;;;;27.58;3.88;;;;;;;15.53;98.33;98756.47;5034728;28;20053;-73
2022/10/21 11:10:37;;;;;;;29.02;4.22;;;;;;;15.42;100.00;98778.16;5008288;28;20117;-73
2022/10/21 11:13:11;;;;;;;27.60;4.15;;;;;;;15.36;100.00;98757.44;5031627;28;20044;-73
2022/10/21 11:15:41;;;;;;;30.40;4.90;;;;;;;15.38;100.00;98755.19;5039458;28;20005;-76
2022/10/21 11:18:52;;;;;;;28.55;4.78;;;;;;;15.56;100.00;98760.50;5053018;28;20278;-72
2022/10/21 11:21:44;;;;;;;30.40;5.68;;;;;;;15.95;100.00;98761.09;5005502;28;20118;-73
2022/10/21 11:24:49;;;;;;;30.08;4.47;;;;;;;16.22;97.95;98763.19;5037819;28;20544;-73
2022/10/21 11:27:33;;;;;;;22.60;3.55;;;;;;;16.40;95.39;98754.69;5031833;28;20119;-74
2022/10/21 11:30:22;;;;;;;31.48;5.22;;;;;;;16.46;94.05;98756.06;5046378;28;20060;-73
2022/10/21 11:33:06;;;;;;;18.23;4.00;;;;;;;16.44;94.72;98763.88;5038580;28;20036;-74
2022/10/21 11:35:43;;;;;;;24.20;3.87;;;;;;;16.57;97.01;98765.47;5059573;28;20744;-73
2022/10/21 11:39:00;;;;;;;33.45;4.57;;;;;;;16.91;96.29;98752.31;5061008;28;20024;-73
2022/10/21 11:42:01;;;;;;;25.55;4.10;;;;;;;17.29;93.43;98753.00;5042422;28;20013;-73
2022/10/21 11:44:48;;;;;;;36.00;4.95;;;;;;;17.22;89.25;98775.69;5005149;28;20033;-73
2022/10/21 11:47:42;;;;;;;24.33;4.45;;;;;;;16.96;90.26;98775.31;5043799;28;20030;-74
2022/10/21 11:50:31;;;;;;;27.23;5.93;;;;;;;16.81;89.50;98771.31;5047070;28;20475;-73
2022/10/21 11:53:17;;;;;;;20.25;3.40;;;;;;;16.44;91.41;98761.13;5042019;28;20036;-74
2022/10/21 11:56:07;;;;;;;27.27;4.63;;;;;;;16.07;92.30;98758.34;5056951;28;20032;-73
2022/10/21 11:58:41;;;;;;;24.38;4.32;;;;;;;15.74;93.74;98761.13;5057214;28;20017;-74
2022/10/21 12:01:15;;;;;;;31.48;4.65;;;;;;;15.37;95.92;98764.59;5052037;28;20025;-72
2022/10/21 12:04:00;;;;;;;33.10;3.83;;;;;;;15.09;98.43;98743.13;5054144;28;20036;-72
2022/10/21 12:06:33;;;;;;;25.67;3.60;;;;;;;15.01;100.00;98757.78;5044680;28;20100;-73